Time;durP1;ratioP1;P1;durP2;ratioP2;P2;SDS_P1;SDS_P2;PMS_P1;PMS_P2;Temp;Humidity;BMP_temperature;BMP_pressure;BME280_temperature;BME280_humidity;BME280_pressure;Samples;Min_cycle;Max_cycle;Signal;HPM_P1;HPM_P2
2021/01/07 00:02:04;;;;;;;3.47;1.85;;;-2.70;99.90;;;;;;4976728;28;20214;-67
2021/01/07 00:04:30;;;;;;;2.90;2.08;;;-2.70;99.90;;;;;;4977681;28;20297;-70
2021/01/07 00:06:56;;;;;;;3.20;2.10;;;-2.70;99.90;;;;;;4978554;28;20237;-70
2021/01/07 00:09:21;;;;;;;2.42;2.00;;;-2.70;99.90;;;;;;4974830;28;20196;-69
2021/01/07 00:11:51;;;;;;;2.47;1.90;;;-2.70;99.90;;;;;;4974484;28;20203;-69
2021/01/07 00:14:17;;;;;;;2.97;1.92;;;-2.80;99.90;;;;;;4974050;28;20276;-69
2021/01/07 00:16:43;;;;;;;3.10;2.10;;;-2.80;99.90;;;;;;4978539;28;20206;-69
2021/01/07 00:19:09;;;;;;;3.88;2.10;;;-2.70;99.90;;;;;;4975474;28;20544;-67
2021/01/07 00:21:35;;;;;;;2.70;2.10;;;-2.70;99.90;;;;;;4972926;28;20208;-67
2021/01/07 00:24:00;;;;;;;2.80;2.00;;;-2.70;99.90;;;;;;4978088;28;20203;-68
2021/01/07 00:26:26;;;;;;;2.58;1.90;;;-2.70;99.90;;;;;;4974717;28;20745;-67
2021/01/07 00:28:52;;;;;;;2.63;1.95;;;-2.60;99.90;;;;;;4975640;28;20762;-69
2021/01/07 00:31:18;;;;;;;3.25;2.05;;;-2.60;99.90;;;;;;4972824;28;20208;-69
2021/01/07 00:33:44;;;;;;;2.95;2.00;;;-2.60;99.90;;;;;;4973495;28;20568;-69
2021/01/07 00:36:10;;;;;;;2.28;1.83;;;-2.60;99.90;;;;;;4971928;28;20701;-69
2021/01/07 00:38:36;;;;;;;3.28;2.08;;;-2.70;99.90;;;;;;4970658;28;20470;-68
2021/01/07 00:41:03;;;;;;;2.65;2.08;;;-2.70;99.90;;;;;;4975000;28;20258;-69
2021/01/07 00:43:28;;;;;;;3.13;2.13;;;-2.60;99.90;;;;;;4975349;28;20211;-68
2021/01/07 00:45:54;;;;;;;2.13;1.60;;;-2.60;99.90;;;;;;4979767;28;20677;-69
2021/01/07 00:48:20;;;;;;;2.75;1.98;;;-2.60;99.90;;;;;;4976776;28;20230;-69
2021/01/07 00:50:47;;;;;;;2.90;2.17;;;-2.60;99.90;;;;;;4977480;28;20557;-69
2021/01/07 00:53:13;;;;;;;3.55;2.10;;;-2.60;99.90;;;;;;4977891;28;20199;-69
2021/01/07 00:55:38;;;;;;;3.63;2.35;;;-2.70;99.90;;;;;;4976988;28;20542;-69
2021/01/07 00:58:07;;;;;;;3.88;2.42;;;-2.60;99.90;;;;;;4977171;28;20207;-68
2021/01/07 01:00:33;;;;;;;3.08;2.05;;;-2.50;99.90;;;;;;4975621;28;21054;-69
2021/01/07 01:02:59;;;;;;;3.47;2.40;;;-2.50;99.90;;;;;;4975403;28;20242;-68
2021/01/07 01:05:24;;;;;;;3.13;2.13;;;-2.50;99.90;;;;;;4976104;28;20227;-67
2021/01/07 01:07:50;;;;;;;2.45;1.98;;;-2.50;99.90;;;;;;4980387;28;20278;-67
2021/01/07 01:10:16;;;;;;;2.80;2.00;;;-2.50;99.90;;;;;;4979306;28;20218;-67
2021/01/07 01:12:42;;;;;;;3.13;1.98;;;-2.50;99.90;;;;;;4978271;28;20215;-68
2021/01/07 01:15:11;;;;;;;3.17;2.25;;;-2.40;99.90;;;;;;4980064;28;20309;-68
2021/01/07 01:17:38;;;;;;;2.58;2.00;;;-2.40;99.90;;;;;;4978691;28;20204;-68
2021/01/07 01:20:08;;;;;;;3.80;2.30;;;-2.40;99.90;;;;;;4979640;28;20444;-67
2021/01/07 01:22:34;;;;;;;4.05;2.30;;;-2.40;99.90;;;;;;4976236;28;20750;-67
2021/01/07 01:25:01;;;;;;;4.03;2.30;;;-2.50;99.90;;;;;;4980644;28;20561;-67
2021/01/07 01:27:30;;;;;;;2.65;2.13;;;-2.50;99.90;;;;;;4981178;28;20212;-68
2021/01/07 01:29:55;;;;;;;2.33;1.60;;;-2.50;99.90;;;;;;4979318;28;20191;-68
2021/01/07 01:32:21;;;;;;;2.83;1.90;;;-2.50;99.90;;;;;;4980390;28;20211;-68
2021/01/07 01:34:47;;;;;;;3.33;2.17;;;-2.40;99.90;;;;;;4980547;28;20200;-68
2021/01/07 01:37:13;;;;;;;4.45;2.30;;;-2.50;99.90;;;;;;4978437;28;20212;-68
2021/01/07 01:39:39;;;;;;;3.08;2.05;;;-2.40;99.90;;;;;;4978473;28;20626;-68
2021/01/07 01:42:05;;;;;;;4.97;2.25;;;-2.50;99.90;;;;;;4978207;28;20211;-67
2021/01/07 01:44:31;;;;;;;3.35;2.05;;;-2.40;99.90;;;;;;4977004;28;20195;-67
2021/01/07 01:46:57;;;;;;;2.50;1.73;;;-2.40;99.90;;;;;;4978814;28;20242;-69
2021/01/07 01:49:23;;;;;;;3.40;2.17;;;-2.40;99.90;;;;;;4978893;28;20203;-67
2021/01/07 01:51:49;;;;;;;2.85;1.90;;;-2.40;99.90;;;;;;4976135;28;20204;-67
2021/01/07 01:54:15;;;;;;;3.85;2.30;;;-2.40;99.90;;;;;;4980919;28;20230;-68
2021/01/07 01:56:47;;;;;;;3.55;2.30;;;-2.40;99.90;;;;;;4975906;28;20199;-67
2021/01/07 01:59:13;;;;;;;3.72;1.95;;;-2.40;99.90;;;;;;4981702;28;20763;-67
2021/01/07 02:01:40;;;;;;;4.50;2.22;;;-2.40;99.90;;;;;;4980827;28;20254;-68
2021/01/07 02:04:06;;;;;;;2.88;1.95;;;-2.40;99.90;;;;;;4987296;23;20242;-66
2021/01/07 02:06:36;;;;;;;3.13;2.10;;;-2.40;99.90;;;;;;4976714;28;20199;-66
2021/01/07 02:09:05;;;;;;;3.35;2.15;;;-2.40;99.90;;;;;;4973570;28;20215;-66
2021/01/07 02:11:31;;;;;;;2.97;2.10;;;-2.40;99.90;;;;;;4977559;28;20200;-66
2021/01/07 02:13:59;;;;;;;3.55;2.20;;;-2.50;99.90;;;;;;4979859;28;20561;-66
2021/01/07 02:16:25;;;;;;;3.45;2.30;;;-2.50;99.90;;;;;;4975349;28;20777;-67
2021/01/07 02:18:55;;;;;;;3.75;2.53;;;-2.50;99.90;;;;;;4978800;28;20287;-66
2021/01/07 02:21:21;;;;;;;2.80;2.15;;;-2.40;99.90;;;;;;4983566;28;20203;-66
2021/01/07 02:23:56;;;;;;;3.28;2.20;;;-2.40;99.90;;;;;;4983737;28;20229;-66
2021/01/07 02:26:24;;;;;;;4.00;2.22;;;-2.40;99.90;;;;;;4979060;28;20187;-66
2021/01/07 02:28:51;;;;;;;3.25;2.13;;;-2.50;99.90;;;;;;4979741;28;20899;-66
2021/01/07 02:31:18;;;;;;;2.60;2.05;;;-2.50;99.90;;;;;;4976909;28;20212;-66
2021/01/07 02:33:44;;;;;;;4.10;2.35;;;-2.40;99.90;;;;;;4980951;28;20254;-66
2021/01/07 02:36:10;;;;;;;2.97;2.30;;;-2.40;99.90;;;;;;4979364;28;20211;-66
2021/01/07 02:38:36;;;;;;;3.83;2.45;;;-2.50;99.90;;;;;;4980017;28;20287;-66
2021/01/07 02:41:03;;;;;;;3.03;2.05;;;-2.50;99.90;;;;;;4978338;28;20202;-66
2021/01/07 02:43:29;;;;;;;2.97;2.28;;;-2.50;99.90;;;;;;4977858;28;20203;-66
2021/01/07 02:45:54;;;;;;;3.60;2.15;;;-2.50;99.90;;;;;;4976799;28;20300;-66
2021/01/07 02:48:20;;;;;;;4.05;2.42;;;-2.50;99.90;;;;;;4980934;28;20210;-66
2021/01/07 02:50:46;;;;;;;3.35;2.30;;;-2.60;99.90;;;;;;4979495;28;20218;-66
2021/01/07 02:53:12;;;;;;;3.85;2.35;;;-2.60;99.90;;;;;;4981957;28;20198;-66
2021/01/07 02:55:38;;;;;;;3.15;2.28;;;-2.60;99.90;;;;;;4978977;28;20203;-66
2021/01/07 02:58:03;;;;;;;6.68;2.30;;;-2.60;99.90;;;;;;4982057;28;20196;-66
2021/01/07 03:00:29;;;;;;;3.95;2.42;;;-2.50;99.90;;;;;;4978434;28;20200;-66
2021/01/07 03:02:55;;;;;;;3.05;2.20;;;-2.60;99.90;;;;;;4978140;28;20770;-66
2021/01/07 03:05:20;;;;;;;4.15;2.63;;;-2.60;99.90;;;;;;4969522;28;20239;-66
2021/01/07 03:07:46;;;;;;;3.17;2.50;;;-2.50;99.90;;;;;;4965139;28;20191;-67
2021/01/07 03:10:13;;;;;;;2.75;2.25;;;-2.50;99.90;;;;;;4972049;28;20211;-66
2021/01/07 03:12:39;;;;;;;3.45;2.33;;;-2.60;99.90;;;;;;4969313;28;20287;-66
2021/01/07 03:15:06;;;;;;;3.65;2.35;;;-2.50;99.90;;;;;;4967664;28;20291;-66
2021/01/07 03:17:32;;;;;;;3.60;2.28;;;-2.60;99.90;;;;;;4967389;28;20223;-66
2021/01/07 03:19:58;;;;;;;4.40;2.50;;;-2.60;99.90;;;;;;4968264;28;20208;-66
2021/01/07 03:22:24;;;;;;;4.13;2.38;;;-2.60;99.90;;;;;;4972305;28;20218;-67
2021/01/07 03:24:49;;;;;;;3.47;2.25;;;-2.60;99.90;;;;;;4965926;28;20204;-66
2021/01/07 03:27:15;;;;;;;5.00;2.22;;;-2.60;99.90;;;;;;4975239;28;20195;-66
2021/01/07 03:29:41;;;;;;;5.30;2.45;;;-2.60;99.90;;;;;;4962488;28;20201;-66
2021/01/07 03:32:06;;;;;;;3.45;2.40;;;-2.60;99.90;;;;;;4969490;28;20283;-67
2021/01/07 03:34:32;;;;;;;3.78;2.30;;;-2.60;99.90;;;;;;4973469;28;20725;-67
2021/01/07 03:36:58;;;;;;;2.50;2.00;;;-2.60;99.90;;;;;;4970473;28;20209;-67
2021/01/07 03:39:23;;;;;;;3.50;2.22;;;-2.60;99.90;;;;;;4968070;28;20215;-67
2021/01/07 03:41:49;;;;;;;3.55;2.15;;;-2.60;99.90;;;;;;4969671;28;20203;-67
2021/01/07 03:44:14;;;;;;;2.97;2.13;;;-2.60;99.90;;;;;;4975252;28;20210;-66
2021/01/07 03:46:40;;;;;;;3.40;2.35;;;-2.70;99.90;;;;;;4969830;28;20591;-67
2021/01/07 03:49:06;;;;;;;4.13;2.13;;;-2.70;99.90;;;;;;4970705;28;20195;-67
2021/01/07 03:51:33;;;;;;;4.25;2.50;;;-2.70;99.90;;;;;;4969580;28;20243;-66
2021/01/07 03:53:58;;;;;;;3.47;2.22;;;-2.70;99.90;;;;;;4969951;28;20287;-66
2021/01/07 03:56:24;;;;;;;4.35;2.28;;;-2.70;99.90;;;;;;4965367;28;20204;-66
2021/01/07 03:58:50;;;;;;;3.63;2.17;;;-2.60;99.90;;;;;;4963351;28;20211;-66
2021/01/07 04:01:17;;;;;;;3.72;2.55;;;-2.60;99.90;;;;;;4967969;28;20210;-66
2021/01/07 04:03:43;;;;;;;3.33;2.30;;;-2.60;99.90;;;;;;4970764;28;20231;-67
2021/01/07 04:06:09;;;;;;;3.85;2.30;;;-2.60;99.90;;;;;;4968649;28;20230;-67
2021/01/07 04:08:36;;;;;;;3.60;2.15;;;-2.70;99.90;;;;;;4960769;28;20561;-66
2021/01/07 04:11:02;;;;;;;3.47;2.45;;;-2.70;99.90;;;;;;4962349;28;20215;-65
2021/01/07 04:13:29;;;;;;;4.43;2.45;;;-2.60;99.90;;;;;;4964694;28;20201;-66
2021/01/07 04:15:54;;;;;;;3.20;2.22;;;-2.70;99.90;;;;;;4966481;28;20312;-66
2021/01/07 04:18:20;;;;;;;3.33;2.40;;;-2.70;99.90;;;;;;4962481;28;20278;-66
2021/01/07 04:20:46;;;;;;;5.47;2.75;;;-2.60;99.90;;;;;;4963842;28;20204;-67
2021/01/07 04:23:11;;;;;;;2.60;2.13;;;-2.60;99.90;;;;;;4965487;28;20227;-67
2021/01/07 04:25:37;;;;;;;3.28;2.22;;;-2.60;99.90;;;;;;4963606;28;20733;-67
2021/01/07 04:28:03;;;;;;;3.88;2.38;;;-2.60;99.90;;;;;;4964091;28;20986;-68
2021/01/07 04:30:28;;;;;;;2.55;2.00;;;-2.60;99.90;;;;;;4961776;28;20695;-67
2021/01/07 04:32:54;;;;;;;3.50;2.42;;;-2.60;99.90;;;;;;4964152;28;20216;-66
2021/01/07 04:35:20;;;;;;;5.43;3.15;;;-2.70;99.90;;;;;;4962792;28;20196;-66
2021/01/07 04:37:46;;;;;;;4.47;2.70;;;-2.60;99.90;;;;;;4960741;28;20211;-66
2021/01/07 04:40:12;;;;;;;4.63;2.55;;;-2.70;99.90;;;;;;4967129;28;20725;-66
2021/01/07 04:42:37;;;;;;;4.25;2.20;;;-2.70;99.90;;;;;;4964472;28;20740;-67
2021/01/07 04:45:04;;;;;;;3.30;2.50;;;-2.70;99.90;;;;;;4961547;28;20287;-66
2021/01/07 04:47:30;;;;;;;4.30;2.40;;;-2.70;99.90;;;;;;4964337;28;20274;-66
2021/01/07 04:49:56;;;;;;;3.50;2.28;;;-2.70;99.90;;;;;;4963961;28;20204;-66
2021/01/07 04:52:22;;;;;;;3.55;2.30;;;-2.70;99.90;;;;;;4965354;28;20278;-66
2021/01/07 04:54:52;;;;;;;3.20;2.13;;;-2.80;99.90;;;;;;4963947;28;20204;-66
2021/01/07 04:57:18;;;;;;;3.97;2.63;;;-2.70;99.90;;;;;;4964374;28;20245;-66
2021/01/07 04:59:43;;;;;;;3.00;2.17;;;-2.70;99.90;;;;;;4954989;28;20211;-66
2021/01/07 05:02:09;;;;;;;4.07;2.50;;;-2.70;99.90;;;;;;4960918;28;20214;-66
2021/01/07 05:04:52;;;;;;;6.13;2.80;;;-2.70;99.90;;;;;;4962419;28;20235;-66
2021/01/07 05:07:21;;;;;;;4.15;2.55;;;-2.60;99.90;;;;;;4962827;28;20210;-66
2021/01/07 05:09:58;;;;;;;2.92;2.30;;;-2.60;99.90;;;;;;4958725;28;20204;-66
2021/01/07 05:12:23;;;;;;;3.50;2.35;;;-2.60;99.90;;;;;;4964109;28;20204;-66
2021/01/07 05:14:49;;;;;;;3.13;2.40;;;-2.60;99.90;;;;;;4962797;28;20250;-66
2021/01/07 05:17:16;;;;;;;4.47;2.72;;;-2.60;99.90;;;;;;4959603;28;20268;-66
2021/01/07 05:19:42;;;;;;;3.90;2.42;;;-2.50;99.90;;;;;;4960013;28;20301;-66
2021/01/07 05:22:07;;;;;;;3.72;2.40;;;-2.50;99.90;;;;;;4964091;28;20299;-67
2021/01/07 05:24:34;;;;;;;3.45;2.40;;;-2.50;99.90;;;;;;4959601;28;20313;-67
2021/01/07 05:27:11;;;;;;;3.72;2.20;;;-2.50;99.90;;;;;;4961663;28;20207;-67
2021/01/07 05:29:40;;;;;;;7.25;2.42;;;-2.50;99.90;;;;;;4958035;28;20254;-66
2021/01/07 05:32:08;;;;;;;3.80;2.50;;;-2.50;99.90;;;;;;4960808;28;20704;-66
2021/01/07 05:34:54;;;;;;;3.88;2.35;;;-2.50;99.90;;;;;;4963463;28;20234;-66
2021/01/07 05:37:22;;;;;;;8.73;2.72;;;-2.50;99.90;;;;;;4962265;28;20212;-66
2021/01/07 05:39:51;;;;;;;3.00;2.28;;;-2.50;99.90;;;;;;4964410;28;20211;-66
2021/01/07 05:42:17;;;;;;;3.63;2.30;;;-2.50;99.90;;;;;;4960943;28;20227;-67
2021/01/07 05:44:47;;;;;;;3.30;2.60;;;-2.50;99.90;;;;;;4964343;28;20208;-66
2021/01/07 05:47:44;;;;;;;3.38;2.55;;;-2.50;99.90;;;;;;4966372;28;20261;-67
2021/01/07 05:50:11;;;;;;;4.13;2.25;;;-2.50;99.90;;;;;;4950536;28;20213;-66
2021/01/07 05:52:44;;;;;;;3.78;2.35;;;-2.50;99.90;;;;;;4964640;28;20246;-67
2021/01/07 05:55:12;;;;;;;3.67;2.42;;;-2.50;99.90;;;;;;4969454;28;20197;-66
2021/01/07 05:57:39;;;;;;;5.57;2.42;;;-2.50;99.90;;;;;;4962354;28;20575;-66
2021/01/07 06:00:10;;;;;;;4.40;2.75;;;-2.50;99.90;;;;;;4964813;28;20231;-66
2021/01/07 06:02:37;;;;;;;5.78;3.20;;;-2.50;99.90;;;;;;4963140;28;20227;-66
2021/01/07 06:05:06;;;;;;;2.53;2.15;;;-2.40;99.90;;;;;;4963140;28;20332;-66
2021/01/07 06:07:32;;;;;;;7.45;2.47;;;-2.40;99.90;;;;;;4961816;28;20283;-66
2021/01/07 06:09:59;;;;;;;4.80;2.58;;;-2.40;99.90;;;;;;4963523;28;20192;-67
2021/01/07 06:12:25;;;;;;;5.43;2.53;;;-2.40;99.90;;;;;;4958659;28;20200;-66
2021/01/07 06:14:51;;;;;;;3.90;2.50;;;-2.40;99.90;;;;;;4959167;28;20196;-66
2021/01/07 06:17:21;;;;;;;6.28;3.33;;;-2.40;99.90;;;;;;4960201;28;20607;-67
2021/01/07 06:19:52;;;;;;;4.80;2.78;;;-2.30;99.90;;;;;;4953554;28;20302;-66
2021/01/07 06:22:18;;;;;;;4.97;2.78;;;-2.40;99.90;;;;;;4955920;28;20736;-67
2021/01/07 06:24:45;;;;;;;3.10;2.50;;;-2.40;99.90;;;;;;4958706;28;20216;-66
2021/01/07 06:27:25;;;;;;;4.38;2.53;;;-2.40;99.90;;;;;;4956464;28;20734;-66
2021/01/07 06:30:00;;;;;;;4.68;2.67;;;-2.40;99.90;;;;;;4959566;28;20197;-67
2021/01/07 06:32:31;;;;;;;5.85;2.83;;;-2.40;99.90;;;;;;4961942;28;20204;-66
2021/01/07 06:34:58;;;;;;;5.75;3.53;;;-2.30;99.90;;;;;;4961974;28;20204;-66
2021/01/07 06:37:29;;;;;;;3.70;2.45;;;-2.40;99.90;;;;;;4963102;28;20200;-66
2021/01/07 06:39:57;;;;;;;4.10;2.50;;;-2.40;99.90;;;;;;4964131;28;20204;-66
2021/01/07 06:42:23;;;;;;;4.30;2.58;;;-2.40;99.90;;;;;;4962495;28;20204;-66
2021/01/07 06:44:53;;;;;;;5.20;3.10;;;-2.30;99.90;;;;;;4964812;28;20207;-66
2021/01/07 06:47:20;;;;;;;7.38;3.03;;;-2.30;99.90;;;;;;4961751;28;20197;-66
2021/01/07 06:49:50;;;;;;;3.40;2.40;;;-2.30;99.90;;;;;;4960413;28;20770;-66
2021/01/07 06:52:20;;;;;;;5.05;3.00;;;-2.30;99.90;;;;;;4957671;28;20215;-66
2021/01/07 06:54:46;;;;;;;4.20;2.72;;;-2.40;99.90;;;;;;4957368;28;20232;-66
2021/01/07 06:57:14;;;;;;;5.40;2.47;;;-2.30;99.90;;;;;;4959105;28;20204;-66
2021/01/07 06:59:59;;;;;;;3.92;2.47;;;-2.30;99.90;;;;;;4959945;28;20196;-66
2021/01/07 07:02:29;;;;;;;3.42;2.38;;;-2.30;99.90;;;;;;4956934;28;20200;-67
2021/01/07 07:05:09;;;;;;;4.13;2.70;;;-2.30;99.90;;;;;;4960047;28;20227;-67
2021/01/07 07:07:50;;;;;;;3.30;2.38;;;-2.20;99.90;;;;;;4953905;28;20491;-67
2021/01/07 07:10:19;;;;;;;7.22;3.60;;;-2.30;99.90;;;;;;4957186;28;20290;-66
2021/01/07 07:12:49;;;;;;;11.20;4.63;;;-2.20;99.90;;;;;;4959120;28;20303;-67
2021/01/07 07:15:22;;;;;;;6.78;3.40;;;-2.30;99.90;;;;;;4957653;28;20318;-67
2021/01/07 07:17:51;;;;;;;9.98;4.15;;;-2.30;99.90;;;;;;4956262;28;20207;-66
2021/01/07 07:20:21;;;;;;;6.00;3.40;;;-2.30;99.90;;;;;;4953291;28;20262;-67
2021/01/07 07:22:47;;;;;;;5.47;3.10;;;-2.20;99.90;;;;;;4954743;28;20212;-67
2021/01/07 07:25:21;;;;;;;5.20;3.05;;;-2.30;99.90;;;;;;4960690;28;20954;-67
2021/01/07 07:28:00;;;;;;;5.35;2.97;;;-2.30;99.90;;;;;;4960905;28;20219;-67
2021/01/07 07:30:29;;;;;;;4.00;2.58;;;-2.20;99.90;;;;;;4960511;28;20203;-67
2021/01/07 07:32:56;;;;;;;6.07;3.03;;;-2.20;99.90;;;;;;4951981;28;20254;-67
2021/01/07 07:35:36;;;;;;;4.38;2.83;;;-2.10;99.90;;;;;;4954442;28;20231;-67
2021/01/07 07:38:02;;;;;;;21.75;11.15;;;-2.20;99.90;;;;;;4960951;28;20971;-67
2021/01/07 07:40:39;;;;;;;48.95;22.10;;;-2.20;99.90;;;;;;4961479;28;20208;-67
2021/01/07 07:43:06;;;;;;;32.03;13.77;;;-2.20;99.90;;;;;;4957431;28;20417;-67
2021/01/07 07:45:34;;;;;;;14.85;8.35;;;-2.20;99.90;;;;;;4964793;28;20223;-67
2021/01/07 07:48:00;;;;;;;27.05;11.02;;;-2.20;99.90;;;;;;4963392;28;20250;-67
2021/01/07 07:50:30;;;;;;;19.77;8.45;;;-2.20;99.90;;;;;;4959028;28;20661;-67
2021/01/07 07:53:08;;;;;;;27.35;10.88;;;-2.10;99.90;;;;;;4959766;28;21051;-66
2021/01/07 07:55:42;;;;;;;35.40;15.52;;;-2.20;99.90;;;;;;4957599;28;20211;-66
2021/01/07 07:58:12;;;;;;;31.23;14.90;;;-2.10;99.90;;;;;;4959531;28;20243;-67
2021/01/07 08:00:39;;;;;;;14.93;7.45;;;-2.10;99.90;;;;;;4954409;28;20290;-66
2021/01/07 08:03:06;;;;;;;57.17;29.55;;;-2.00;99.90;;;;;;4959254;28;20709;-66
2021/01/07 08:05:33;;;;;;;52.15;25.55;;;-2.00;99.90;;;;;;4957308;28;20312;-65
2021/01/07 08:07:59;;;;;;;18.60;10.07;;;-2.00;99.90;;;;;;4960287;28;20199;-65
2021/01/07 08:10:26;;;;;;;39.40;17.00;;;-2.00;99.90;;;;;;4959896;28;20738;-65
2021/01/07 08:12:53;;;;;;;43.67;19.20;;;-2.00;99.90;;;;;;4954130;28;20196;-66
2021/01/07 08:15:28;;;;;;;15.25;7.68;;;-2.00;99.90;;;;;;4955822;28;20228;-66
2021/01/07 08:17:54;;;;;;;17.73;9.80;;;-2.00;99.90;;;;;;4950262;28;20238;-66
2021/01/07 08:20:26;;;;;;;46.10;23.70;;;-1.90;99.90;;;;;;4955762;28;20311;-66
2021/01/07 08:22:56;;;;;;;36.50;20.73;;;-1.90;99.90;;;;;;4953401;28;20227;-66
2021/01/07 08:25:32;;;;;;;14.48;9.23;;;-2.00;99.90;;;;;;4958026;28;20199;-67
2021/01/07 08:28:07;;;;;;;9.10;4.82;;;-1.90;99.90;;;;;;4950418;28;20196;-66
2021/01/07 08:30:38;;;;;;;18.98;10.40;;;-1.90;99.90;;;;;;4961523;28;20222;-66
2021/01/07 08:33:05;;;;;;;14.68;8.80;;;-1.90;99.90;;;;;;4957314;28;20196;-67
2021/01/07 08:35:31;;;;;;;17.48;7.88;;;-1.90;99.90;;;;;;4957919;28;20211;-67
2021/01/07 08:37:57;;;;;;;11.63;6.93;;;-1.90;99.90;;;;;;4959894;28;20892;-66
2021/01/07 08:40:22;;;;;;;8.13;4.57;;;-1.90;99.90;;;;;;4954220;28;20205;-66
2021/01/07 08:42:48;;;;;;;5.93;3.60;;;-2.00;99.90;;;;;;4959011;28;20572;-66
2021/01/07 08:45:14;;;;;;;7.15;4.55;;;-2.00;99.90;;;;;;4950108;28;20292;-66
2021/01/07 08:47:40;;;;;;;7.95;3.30;;;-1.90;99.90;;;;;;4946421;28;20210;-66
2021/01/07 08:50:19;;;;;;;42.05;17.23;;;-1.90;99.90;;;;;;4953855;28;20196;-66
2021/01/07 08:52:53;;;;;;;125.68;41.33;;;-1.90;99.90;;;;;;4958844;28;20234;-66
2021/01/07 08:55:48;;;;;;;327.23;106.50;;;-1.90;99.90;;;;;;4954240;28;20236;-67
2021/01/07 08:58:25;;;;;;;17.73;9.50;;;-1.90;99.90;;;;;;4957359;28;20992;-66
2021/01/07 09:00:52;;;;;;;52.70;23.48;;;-1.90;99.90;;;;;;4959472;28;20993;-67
2021/01/07 09:03:19;;;;;;;46.40;20.17;;;-2.00;99.90;;;;;;4957937;28;20243;-66
2021/01/07 09:05:45;;;;;;;14.30;6.90;;;-2.00;99.90;;;;;;4964423;28;20647;-67
2021/01/07 09:08:13;;;;;;;10.52;6.80;;;-1.90;99.90;;;;;;4969616;28;20202;-67
2021/01/07 09:10:39;;;;;;;33.65;20.33;;;-2.00;99.90;;;;;;4965127;28;20469;-67
2021/01/07 09:13:19;;;;;;;18.08;10.57;;;-2.00;99.90;;;;;;4960361;28;20215;-67
2021/01/07 09:15:45;;;;;;;24.95;8.68;;;-2.00;99.90;;;;;;4965909;28;20259;-66
2021/01/07 09:18:11;;;;;;;12.20;6.20;;;-2.00;99.90;;;;;;4964476;28;20562;-66
2021/01/07 09:20:37;;;;;;;7.53;4.40;;;-2.00;99.90;;;;;;4970074;28;20200;-67
2021/01/07 09:23:05;;;;;;;6.65;4.13;;;-2.00;99.90;;;;;;4964835;28;20207;-66
2021/01/07 09:25:32;;;;;;;5.88;3.35;;;-2.00;99.90;;;;;;4971263;28;20208;-66
2021/01/07 09:27:58;;;;;;;3.88;2.95;;;-2.00;99.90;;;;;;4962588;28;20195;-66
2021/01/07 09:30:25;;;;;;;6.63;3.10;;;-2.00;99.90;;;;;;4968306;28;20200;-67
2021/01/07 09:32:51;;;;;;;4.55;2.67;;;-1.90;99.90;;;;;;4967650;28;20228;-66
2021/01/07 09:35:17;;;;;;;5.82;2.90;;;-1.90;99.90;;;;;;4962701;28;20207;-67
2021/01/07 09:37:43;;;;;;;20.50;8.88;;;-1.90;99.90;;;;;;4964700;28;20254;-66
2021/01/07 09:40:09;;;;;;;7.07;4.07;;;-2.00;99.90;;;;;;4963608;28;20501;-66
2021/01/07 09:42:35;;;;;;;7.38;4.88;;;-2.00;99.90;;;;;;4968411;28;20270;-66
2021/01/07 09:45:02;;;;;;;7.10;4.28;;;-2.00;99.90;;;;;;4965300;28;20210;-67
2021/01/07 09:47:29;;;;;;;6.00;4.32;;;-2.00;99.90;;;;;;4970693;28;20200;-67
2021/01/07 09:49:56;;;;;;;7.55;3.42;;;-1.90;99.90;;;;;;4967156;28;20192;-66
2021/01/07 09:52:22;;;;;;;4.63;2.70;;;-1.90;99.90;;;;;;4962166;28;20200;-66
2021/01/07 09:54:48;;;;;;;3.17;2.40;;;-1.80;99.90;;;;;;4953303;28;20236;-67
2021/01/07 09:57:14;;;;;;;4.50;2.90;;;-1.90;99.90;;;;;;4956697;28;20366;-67
2021/01/07 09:59:40;;;;;;;4.22;2.50;;;-1.80;99.90;;;;;;4959580;28;20208;-67
2021/01/07 10:02:10;;;;;;;4.43;3.05;;;-1.80;99.90;;;;;;4965253;28;20211;-66
2021/01/07 10:04:37;;;;;;;2.83;2.28;;;-1.70;99.90;;;;;;4960354;28;20235;-66
2021/01/07 10:07:06;;;;;;;8.95;5.10;;;-1.70;99.90;;;;;;4969115;28;20304;-66
2021/01/07 10:09:32;;;;;;;9.77;5.97;;;-1.70;99.90;;;;;;4963312;28;20262;-66
2021/01/07 10:11:58;;;;;;;6.65;3.95;;;-1.70;99.90;;;;;;4972483;28;20736;-66
2021/01/07 10:14:25;;;;;;;6.72;3.75;;;-1.70;99.90;;;;;;4963127;28;20711;-67
2021/01/07 10:16:57;;;;;;;7.20;3.38;;;-1.70;99.90;;;;;;4965765;28;20280;-66
2021/01/07 10:19:28;;;;;;;6.97;4.25;;;-1.70;99.90;;;;;;4963877;28;20212;-66
2021/01/07 10:22:02;;;;;;;5.25;3.38;;;-1.70;99.90;;;;;;4968720;28;20214;-66
2021/01/07 10:24:29;;;;;;;6.47;3.88;;;-1.70;99.90;;;;;;4977546;28;20195;-66
2021/01/07 10:27:04;;;;;;;5.82;3.45;;;-1.70;99.90;;;;;;4956472;28;20205;-66
2021/01/07 10:29:34;;;;;;;9.23;5.50;;;-1.70;99.90;;;;;;4950674;28;20200;-66
2021/01/07 10:32:05;;;;;;;7.13;4.03;;;-1.70;99.90;;;;;;4958071;28;20299;-67
2021/01/07 10:34:51;;;;;;;4.22;2.50;;;-1.70;99.90;;;;;;4951371;28;20201;-66
2021/01/07 10:37:19;;;;;;;5.03;3.08;;;-1.70;99.90;;;;;;4953142;28;20224;-66
2021/01/07 10:39:47;;;;;;;3.92;2.42;;;-1.70;99.90;;;;;;4955816;28;20216;-66
2021/01/07 10:42:14;;;;;;;6.22;3.35;;;-1.80;99.90;;;;;;4954507;28;20215;-66
2021/01/07 10:44:43;;;;;;;5.07;2.97;;;-1.80;99.90;;;;;;4960895;28;20275;-66
2021/01/07 10:47:11;;;;;;;6.35;2.55;;;-1.70;99.90;;;;;;4960379;28;20210;-66
2021/01/07 10:49:40;;;;;;;20.92;8.30;;;-1.70;99.90;;;;;;4958536;28;20894;-67
2021/01/07 10:52:12;;;;;;;29.25;11.52;;;-1.70;99.90;;;;;;4957805;28;20662;-67
2021/01/07 10:55:16;;;;;;;10.25;5.10;;;-1.70;99.90;;;;;;4961065;28;20242;-67
2021/01/07 10:58:13;;;;;;;21.95;13.40;;;-1.70;99.90;;;;;;4954165;28;20246;-67
2021/01/07 11:00:53;;;;;;;29.02;9.80;;;-1.80;99.90;;;;;;4955395;28;20212;-67
2021/01/07 11:04:03;;;;;;;27.45;10.05;;;-1.80;99.90;;;;;;4952687;28;20258;-66
2021/01/07 11:06:34;;;;;;;20.75;6.97;;;-1.90;99.90;;;;;;4955198;28;20239;-66
2021/01/07 11:09:09;;;;;;;17.80;6.55;;;-1.80;99.90;;;;;;4965594;28;20196;-67
2021/01/07 11:11:52;;;;;;;26.27;11.68;;;-1.80;99.90;;;;;;4958686;28;20298;-67
2021/01/07 11:14:21;;;;;;;18.55;6.85;;;-1.90;99.90;;;;;;4961579;28;21174;-67
2021/01/07 11:16:51;;;;;;;14.98;8.00;;;-1.80;99.90;;;;;;4954684;28;20192;-67
2021/01/07 11:19:22;;;;;;;26.95;11.55;;;-1.70;99.90;;;;;;4953383;28;20243;-67
2021/01/07 11:22:05;;;;;;;22.55;9.02;;;-1.70;99.90;;;;;;4954708;28;20216;-67
2021/01/07 11:24:31;;;;;;;22.55;8.05;;;-1.60;99.90;;;;;;4957853;28;20204;-67
2021/01/07 11:27:02;;;;;;;9.73;4.45;;;-1.70;99.90;;;;;;4955004;28;20208;-67
2021/01/07 11:29:29;;;;;;;19.48;9.13;;;-1.70;99.90;;;;;;4953623;28;20200;-67
2021/01/07 11:31:58;;;;;;;7.80;5.55;;;-1.70;99.90;;;;;;4953987;28;20215;-67
2021/01/07 11:34:28;;;;;;;5.65;4.28;;;-1.70;99.90;;;;;;4961864;28;20833;-66
2021/01/07 11:37:38;;;;;;;6.90;4.32;;;-1.70;99.90;;;;;;4956780;28;20299;-67
2021/01/07 11:40:07;;;;;;;17.65;7.78;;;-1.60;99.90;;;;;;4951415;28;20681;-67
2021/01/07 11:42:36;;;;;;;4.82;2.83;;;-1.60;99.90;;;;;;4960152;28;20339;-66
2021/01/07 11:45:05;;;;;;;11.55;6.68;;;-1.70;99.90;;;;;;4978185;28;20212;-66
2021/01/07 11:47:38;;;;;;;12.75;8.32;;;-1.60;99.90;;;;;;4954381;28;20243;-66
2021/01/07 11:50:06;;;;;;;6.45;4.45;;;-1.60;99.90;;;;;;4956267;28;20207;-67
2021/01/07 11:52:33;;;;;;;9.20;4.70;;;-1.60;99.90;;;;;;4953664;28;20216;-67
2021/01/07 11:55:00;;;;;;;16.75;10.13;;;-1.60;99.90;;;;;;4973129;28;20295;-67
2021/01/07 11:57:31;;;;;;;16.90;6.68;;;-1.60;99.90;;;;;;4961487;28;20208;-67
2021/01/07 11:59:57;;;;;;;12.98;5.10;;;-1.60;99.90;;;;;;4958471;28;20224;-67
2021/01/07 12:02:23;;;;;;;9.57;5.28;;;-1.50;99.90;;;;;;4956619;28;20216;-67
2021/01/07 12:04:51;;;;;;;23.30;10.75;;;-1.60;99.90;;;;;;4957470;28;20262;-67
2021/01/07 12:07:44;;;;;;;21.98;9.77;;;-1.50;99.90;;;;;;4956241;28;20306;-67
2021/01/07 12:10:10;;;;;;;5.30;2.35;;;-1.60;99.90;;;;;;4956286;28;20242;-67
2021/01/07 12:12:45;;;;;;;8.13;3.20;;;-1.60;99.90;;;;;;4955229;28;20209;-67
2021/01/07 12:15:16;;;;;;;3.20;2.10;;;-1.60;99.90;;;;;;4956253;28;20200;-67
2021/01/07 12:17:41;;;;;;;3.83;2.50;;;-1.60;99.90;;;;;;4959584;28;20665;-66
2021/01/07 12:20:08;;;;;;;5.40;2.75;;;-1.60;99.90;;;;;;4956718;28;20212;-65
2021/01/07 12:22:35;;;;;;;5.10;2.63;;;-1.60;99.90;;;;;;4955988;28;20235;-66
2021/01/07 12:25:05;;;;;;;6.20;3.17;;;-1.60;99.90;;;;;;4958061;28;20196;-66
2021/01/07 12:27:31;;;;;;;7.13;3.72;;;-1.60;99.90;;;;;;4961391;28;20788;-66
2021/01/07 12:29:58;;;;;;;8.38;3.20;;;-1.60;99.90;;;;;;4954109;28;20601;-66
2021/01/07 12:32:30;;;;;;;5.97;3.40;;;-1.60;99.90;;;;;;4956610;28;20207;-67
2021/01/07 12:35:01;;;;;;;4.43;2.47;;;-1.60;99.90;;;;;;4956920;28;20639;-66
2021/01/07 12:37:34;;;;;;;6.05;3.00;;;-1.60;99.90;;;;;;4960604;28;20290;-66
2021/01/07 12:40:06;;;;;;;5.43;3.17;;;-1.60;99.90;;;;;;4953589;28;20243;-66
2021/01/07 12:42:41;;;;;;;5.75;3.00;;;-1.60;99.90;;;;;;4973196;28;20203;-66
2021/01/07 12:45:10;;;;;;;3.30;2.20;;;-1.60;99.90;;;;;;4956037;28;20671;-67
2021/01/07 12:47:36;;;;;;;4.13;2.63;;;-1.60;99.90;;;;;;4956627;28;20215;-66
2021/01/07 12:50:02;;;;;;;5.50;2.35;;;-1.60;99.90;;;;;;4974152;28;20203;-67
2021/01/07 12:52:30;;;;;;;6.00;2.80;;;-1.60;99.90;;;;;;4955914;28;20229;-67